createdAt,value
2023-04-10T00:01:45.065Z,99010.97
2023-04-10T00:04:11.967Z,99003.69
2023-04-10T00:06:38.769Z,99006.94
2023-04-10T00:09:05.202Z,99005.25
2023-04-10T00:11:31.658Z,99001.56
2023-04-10T00:13:58.095Z,99006.88
2023-04-10T00:16:24.650Z,99006.19
2023-04-10T00:18:51.165Z,99011.13
2023-04-10T00:21:18.095Z,99006.53
2023-04-10T00:23:44.706Z,99000.66
2023-04-10T00:26:11.488Z,98999.16
2023-04-10T00:28:38.194Z,98996.91
2023-04-10T00:31:05.634Z,98989.56
2023-04-10T00:33:32.220Z,98990.47
2023-04-10T00:35:58.780Z,98991.03
2023-04-10T00:38:25.573Z,98986.31
2023-04-10T00:40:52.068Z,98989.00
2023-04-10T00:43:20.275Z,98989.41
2023-04-10T00:45:47.925Z,98992.94
2023-04-10T00:48:16.129Z,98987.63
2023-04-10T00:50:42.779Z,98984.50
2023-04-10T00:53:09.398Z,98987.75
2023-04-10T00:55:35.975Z,98984.25
2023-04-10T00:58:02.550Z,98985.50
2023-04-10T01:00:29.149Z,98979.00
2023-04-10T01:02:55.984Z,98982.63
2023-04-10T01:05:23.385Z,98978.28
2023-04-10T01:07:56.153Z,98975.03
2023-04-10T01:10:42.005Z,98967.63
2023-04-10T01:13:16.396Z,98971.19
2023-04-10T01:16:02.756Z,98970.34
2023-04-10T01:18:44.185Z,98972.09
2023-04-10T01:21:14.160Z,98981.53
2023-04-10T01:23:49.713Z,98981.13
2023-04-10T01:26:19.736Z,98986.75
2023-04-10T01:28:51.525Z,98991.66
2023-04-10T01:31:28.023Z,98989.31
2023-04-10T01:34:01.165Z,98995.91
2023-04-10T01:36:34.377Z,98997.16
2023-04-10T01:39:02.316Z,98994.53
2023-04-10T01:41:29.600Z,98992.72
2023-04-10T01:43:57.849Z,98990.69
2023-04-10T01:46:27.250Z,98991.53
2023-04-10T01:48:56.174Z,98989.50
2023-04-10T01:51:23.776Z,98986.41
2023-04-10T01:53:51.667Z,98985.59
2023-04-10T01:56:18.803Z,98982.94
2023-04-10T01:58:45.726Z,98986.88
2023-04-10T02:01:28.431Z,98996.94
2023-04-10T02:03:56.913Z,98987.66
2023-04-10T02:06:37.255Z,98987.88
2023-04-10T02:09:26.682Z,98987.69
2023-04-10T02:12:04.286Z,98988.28
2023-04-10T02:14:33.958Z,98978.44
2023-04-10T02:17:01.615Z,98977.38
2023-04-10T02:19:31.101Z,98968.97
2023-04-10T02:21:58.802Z,98975.34
2023-04-10T02:24:26.176Z,98974.09
2023-04-10T02:26:53.787Z,98971.84
2023-04-10T02:29:20.420Z,98979.06
2023-04-10T02:31:47.251Z,98977.81
2023-04-10T02:34:13.842Z,98979.06
2023-04-10T02:36:40.653Z,98976.38
2023-04-10T02:39:08.332Z,98973.50
2023-04-10T02:41:34.827Z,98967.75
2023-04-10T02:44:01.696Z,98980.47
2023-04-10T02:46:28.232Z,98980.06
2023-04-10T02:48:55.336Z,98979.66
2023-04-10T02:51:22.099Z,98985.22
2023-04-10T02:53:48.971Z,98981.91
2023-04-10T02:56:15.496Z,98984.59
2023-04-10T02:58:45.508Z,98983.78
2023-04-10T03:01:12.638Z,98983.38
2023-04-10T03:03:39.602Z,98979.25
2023-04-10T03:06:08.068Z,98967.75
2023-04-10T03:08:34.712Z,98971.06
2023-04-10T03:11:01.213Z,98961.16
2023-04-10T03:13:27.750Z,98962.59
2023-04-10T03:15:54.388Z,98960.75
2023-04-10T03:18:21.106Z,98949.66
2023-04-10T03:20:47.767Z,98945.56
2023-04-10T03:23:14.348Z,98942.28
2023-04-10T03:25:41.257Z,98935.72
2023-04-10T03:28:07.734Z,98929.97
2023-04-10T03:30:36.998Z,98932.84
2023-04-10T03:33:03.819Z,98928.09
2023-04-10T03:35:30.333Z,98931.19
2023-04-10T03:37:56.815Z,98927.91
2023-04-10T03:40:23.724Z,98933.44
2023-04-10T03:42:50.306Z,98928.94
2023-04-10T03:45:16.954Z,98933.84
2023-04-10T03:47:43.488Z,98928.94
2023-04-10T03:50:10.601Z,98926.25
2023-04-10T03:52:37.128Z,98935.50
2023-04-10T03:55:03.734Z,98934.69
2023-04-10T03:57:30.288Z,98938.16
2023-04-10T03:59:56.807Z,98935.72
2023-04-10T04:02:23.435Z,98936.13
2023-04-10T04:04:50.457Z,98936.94
2023-04-10T04:07:16.983Z,98937.75
2023-04-10T04:09:43.494Z,98931.38
2023-04-10T04:12:09.944Z,98942.69
2023-04-10T04:14:36.416Z,98932.84
2023-04-10T04:17:03.105Z,98940.63
2023-04-10T04:19:30.002Z,98939.41
2023-04-10T04:21:56.639Z,98942.66
2023-04-10T04:24:23.256Z,98939.78
2023-04-10T04:26:49.800Z,98941.84
2023-04-10T04:29:16.417Z,98940.63
2023-04-10T04:31:42.928Z,98939.56
2023-04-10T04:34:09.409Z,98946.72
2023-04-10T04:36:35.845Z,98949.63
2023-04-10T04:39:02.408Z,98945.13
2023-04-10T04:41:32.283Z,98951.66
2023-04-10T04:44:01.257Z,98949.38
2023-04-10T04:46:28.026Z,98945.91
2023-04-10T04:48:54.672Z,98958.66
2023-04-10T04:51:21.223Z,98952.06
2023-04-10T04:53:47.759Z,98950.81
2023-04-10T04:56:14.284Z,98944.88
2023-04-10T04:58:40.896Z,98950.84
2023-04-10T05:01:08.222Z,98954.13
2023-04-10T05:03:34.787Z,98952.84
2023-04-10T05:06:01.587Z,98947.53
2023-04-10T05:08:28.137Z,98951.00
2023-04-10T05:10:54.684Z,98947.94
2023-04-10T05:13:21.391Z,98945.66
2023-04-10T05:15:48.898Z,98944.03
2023-04-10T05:18:19.734Z,98950.41
2023-04-10T05:20:47.411Z,98941.38
2023-04-10T05:23:15.558Z,98938.94
2023-04-10T05:25:42.154Z,98938.13
2023-04-10T05:28:08.841Z,98940.81
2023-04-10T05:30:35.388Z,98944.28
2023-04-10T05:33:01.985Z,98942.47
2023-04-10T05:35:28.632Z,98944.31
2023-04-10T05:37:55.129Z,98946.94
2023-04-10T05:40:21.576Z,98948.41
2023-04-10T05:42:48.088Z,98947.81
2023-04-10T05:45:15.207Z,98957.03
2023-04-10T05:47:41.972Z,98949.25
2023-04-10T05:50:08.946Z,98955.66
2023-04-10T05:52:35.553Z,98951.09
2023-04-10T05:55:02.536Z,98957.88
2023-04-10T05:57:29.825Z,98952.56
2023-04-10T05:59:56.486Z,98948.84
2023-04-10T06:02:23.211Z,98953.09
2023-04-10T06:04:50.116Z,98954.66
2023-04-10T06:07:16.744Z,98950.81
2023-04-10T06:09:43.252Z,98953.59
2023-04-10T06:12:09.766Z,98957.78
2023-04-10T06:14:36.280Z,98964.63
2023-04-10T06:17:02.776Z,98967.00
2023-04-10T06:19:29.252Z,98959.22
2023-04-10T06:21:55.848Z,98964.16
2023-04-10T06:24:22.314Z,98964.88
2023-04-10T06:26:49.114Z,98972.50
2023-04-10T06:29:15.801Z,98962.88
2023-04-10T06:31:42.277Z,98966.44
2023-04-10T06:34:08.754Z,98969.69
2023-04-10T06:36:35.983Z,98965.88
2023-04-10T06:39:02.802Z,98966.22
2023-04-10T06:41:29.256Z,98956.97
2023-04-10T06:43:55.707Z,98964.94
2023-04-10T06:46:22.284Z,98963.69
2023-04-10T06:48:48.817Z,98964.75
2023-04-10T06:51:15.548Z,98963.47
2023-04-10T06:53:42.016Z,98967.56
2023-04-10T06:56:08.957Z,98961.41
2023-04-10T06:58:35.702Z,98964.09
2023-04-10T07:01:04.945Z,98962.00
2023-04-10T07:03:32.680Z,98958.28
2023-04-10T07:05:59.970Z,98958.91
2023-04-10T07:08:27.367Z,98955.53
2023-04-10T07:10:54.437Z,98960.13
2023-04-10T07:13:21.625Z,98955.47
2023-04-10T07:15:48.092Z,98947.59
2023-04-10T07:18:14.554Z,98947.94
2023-04-10T07:20:41.018Z,98943.75
2023-04-10T07:23:07.519Z,98949.97
2023-04-10T07:25:34.085Z,98940.16
2023-04-10T07:28:00.692Z,98945.09
2023-04-10T07:30:27.277Z,98940.88
2023-04-10T07:32:53.856Z,98940.72
2023-04-10T07:35:20.649Z,98944.53
2023-04-10T07:37:51.558Z,98943.69
2023-04-10T07:40:18.163Z,98943.78
2023-04-10T07:42:44.567Z,98940.31
2023-04-10T07:45:11.485Z,98939.53
2023-04-10T07:47:38.153Z,98945.53
2023-04-10T07:50:05.458Z,98945.47
2023-04-10T07:52:31.909Z,98938.75
2023-04-10T07:54:58.447Z,98934.13
2023-04-10T07:57:24.988Z,98921.25
2023-04-10T07:59:51.496Z,98919.22
2023-04-10T08:02:18.049Z,98918.09
2023-04-10T08:04:44.717Z,98910.03
2023-04-10T08:07:11.246Z,98904.22
2023-04-10T08:09:37.744Z,98916.53
2023-04-10T08:12:04.286Z,98912.06
2023-04-10T08:14:30.765Z,98918.75
2023-04-10T08:16:57.761Z,98915.38
2023-04-10T08:19:24.353Z,98911.41
2023-04-10T08:21:50.941Z,98924.97
2023-04-10T08:24:19.866Z,98914.47
2023-04-10T08:26:46.351Z,98914.19
2023-04-10T08:29:12.897Z,98910.88
2023-04-10T08:31:39.490Z,98911.19
2023-04-10T08:34:06.023Z,98904.56
2023-04-10T08:36:32.618Z,98904.97
2023-04-10T08:38:59.194Z,98898.84
2023-04-10T08:41:25.955Z,98896.34
2023-04-10T08:43:52.634Z,98902.00
2023-04-10T08:46:20.160Z,98899.16
2023-04-10T08:49:02.702Z,98907.91
2023-04-10T08:51:35.956Z,98912.00
2023-04-10T08:54:16.113Z,98907.53
2023-04-10T08:56:48.599Z,98901.81
2023-04-10T08:59:15.674Z,98909.66
2023-04-10T09:01:42.474Z,98908.53
2023-04-10T09:04:11.852Z,98904.84
2023-04-10T09:06:38.518Z,98892.25
2023-04-10T09:09:09.212Z,98902.88
2023-04-10T09:11:57.091Z,98887.63
2023-04-10T09:14:29.462Z,98898.16
2023-04-10T09:17:12.090Z,98891.81
2023-04-10T09:19:38.664Z,98892.84
2023-04-10T09:22:05.308Z,98890.13
2023-04-10T09:24:37.145Z,98887.94
2023-04-10T09:27:03.902Z,98889.56
2023-04-10T09:29:49.881Z,98883.47
2023-04-10T09:32:55.444Z,98876.53
2023-04-10T09:35:22.012Z,98876.44
2023-04-10T09:37:48.662Z,98869.38
2023-04-10T09:40:24.592Z,98859.94
2023-04-10T09:42:51.822Z,98870.56
2023-04-10T09:45:20.447Z,98861.47
2023-04-10T09:48:06.851Z,98863.56
2023-04-10T09:50:42.376Z,98864.81
2023-04-10T09:53:20.676Z,98856.25
2023-04-10T09:55:50.798Z,98856.56
2023-04-10T09:58:18.908Z,98850.22
2023-04-10T10:00:47.563Z,98847.50
2023-04-10T10:03:16.951Z,98835.31
2023-04-10T10:05:46.257Z,98837.53
2023-04-10T10:08:14.471Z,98836.13
2023-04-10T10:10:48.584Z,98825.41
2023-04-10T10:13:23.056Z,98827.19
2023-04-10T10:16:09.950Z,98824.78
2023-04-10T10:18:43.592Z,98819.28
2023-04-10T10:21:10.381Z,98815.22
2023-04-10T10:23:37.863Z,98815.50
2023-04-10T10:26:09.086Z,98809.59
2023-04-10T10:28:37.206Z,98805.56
2023-04-10T10:31:04.362Z,98814.16
2023-04-10T10:33:31.869Z,98811.09
2023-04-10T10:36:00.320Z,98803.41
2023-04-10T10:38:28.272Z,98810.38
2023-04-10T10:41:23.581Z,98800.00
2023-04-10T10:44:06.654Z,98799.34
2023-04-10T10:46:39.316Z,98796.31
2023-04-10T10:49:05.828Z,98800.91
2023-04-10T10:51:51.427Z,98800.00
2023-04-10T10:54:27.842Z,98803.59
2023-04-10T10:56:54.344Z,98794.22
2023-04-10T10:59:48.738Z,98789.91
2023-04-10T11:02:19.998Z,98793.72
2023-04-10T11:04:50.068Z,98788.69
2023-04-10T11:07:17.323Z,98781.25
2023-04-10T11:09:54.761Z,98772.84
2023-04-10T11:12:25.488Z,98772.31
2023-04-10T11:15:04.852Z,98775.16
2023-04-10T11:17:51.259Z,98780.03
2023-04-10T11:20:20.925Z,98776.44
2023-04-10T11:23:13.116Z,98774.13
2023-04-10T11:25:55.780Z,98775.94
2023-04-10T11:28:39.196Z,98778.78
2023-04-10T11:31:22.115Z,98773.09
2023-04-10T11:34:01.025Z,98772.75
2023-04-10T11:36:27.791Z,98767.84
2023-04-10T11:38:58.377Z,98764.75
2023-04-10T11:41:30.765Z,98767.47
2023-04-10T11:43:58.878Z,98750.91
2023-04-10T11:46:25.671Z,98754.88
2023-04-10T11:48:54.418Z,98760.13
2023-04-10T11:51:22.201Z,98760.38
2023-04-10T11:53:48.766Z,98751.53
2023-04-10T11:56:21.817Z,98747.03
2023-04-10T11:58:51.055Z,98742.72
2023-04-10T12:01:21.567Z,98741.84
2023-04-10T12:03:48.157Z,98747.75
2023-04-10T12:06:15.692Z,98751.88
2023-04-10T12:08:51.161Z,98744.78
2023-04-10T12:11:20.480Z,98741.22
2023-04-10T12:13:48.199Z,98734.09
2023-04-10T12:16:15.056Z,98730.88
2023-04-10T12:18:42.694Z,98724.66
2023-04-10T12:21:09.472Z,98723.94
2023-04-10T12:23:38.854Z,98725.19
2023-04-10T12:26:12.573Z,98716.34
2023-04-10T12:28:41.105Z,98714.38
2023-04-10T12:31:08.981Z,98712.31
2023-04-10T12:33:36.034Z,98699.44
2023-04-10T12:36:02.689Z,98706.25
2023-04-10T12:38:43.082Z,98695.81
2023-04-10T12:41:11.421Z,98704.44
2023-04-10T12:43:42.421Z,98695.41
2023-04-10T12:46:10.745Z,98701.06
2023-04-10T12:48:37.411Z,98686.63
2023-04-10T12:51:04.326Z,98689.56
2023-04-10T12:53:31.122Z,98692.22
2023-04-10T12:56:00.657Z,98697.28
2023-04-10T12:58:28.339Z,98696.97
2023-04-10T13:00:58.698Z,98691.66
2023-04-10T13:03:25.694Z,98694.94
2023-04-10T13:05:53.585Z,98688.41
2023-04-10T13:08:21.350Z,98689.72
2023-04-10T13:10:49.096Z,98684.34
2023-04-10T13:13:16.339Z,98686.16
2023-04-10T13:15:43.007Z,98680.22
2023-04-10T13:18:12.501Z,98675.53
2023-04-10T13:20:40.933Z,98674.75
2023-04-10T13:23:08.516Z,98679.97
2023-04-10T13:25:39.868Z,98674.28
2023-04-10T13:28:11.248Z,98663.94
2023-04-10T13:30:41.707Z,98666.75
2023-04-10T13:33:09.357Z,98664.13
2023-04-10T13:35:36.132Z,98665.44
2023-04-10T13:38:02.760Z,98666.56
2023-04-10T13:40:29.321Z,98662.84
2023-04-10T13:42:55.897Z,98658.00
2023-04-10T13:45:22.783Z,98655.91
2023-04-10T13:47:49.330Z,98651.38
2023-04-10T13:50:16.006Z,98650.56
2023-04-10T13:52:42.535Z,98645.56
2023-04-10T13:55:09.532Z,98635.66
2023-04-10T13:57:36.091Z,98639.31
2023-04-10T14:00:03.651Z,98645.81
2023-04-10T14:02:30.640Z,98643.50
2023-04-10T14:04:57.235Z,98637.75
2023-04-10T14:07:23.747Z,98634.41
2023-04-10T14:09:50.300Z,98635.63
2023-04-10T14:12:16.910Z,98636.47
2023-04-10T14:14:44.319Z,98637.53
2023-04-10T14:17:10.944Z,98645.28
2023-04-10T14:19:38.805Z,98643.53
2023-04-10T14:22:05.796Z,98644.19
2023-04-10T14:24:32.314Z,98641.72
2023-04-10T14:27:01.312Z,98635.41
2023-04-10T14:29:37.480Z,98630.94
2023-04-10T14:32:07.443Z,98641.59
2023-04-10T14:34:34.230Z,98637.53
2023-04-10T14:37:00.959Z,98636.03
2023-04-10T14:39:27.523Z,98641.50
2023-04-10T14:41:54.060Z,98637.56
2023-04-10T14:44:20.627Z,98634.47
2023-04-10T14:46:47.523Z,98634.06
2023-04-10T14:49:15.053Z,98632.16
2023-04-10T14:51:45.456Z,98626.44
2023-04-10T14:54:12.107Z,98626.16
2023-04-10T14:56:38.669Z,98623.06
2023-04-10T14:59:05.497Z,98621.81
2023-04-10T15:01:32.004Z,98624.94
2023-04-10T15:03:58.711Z,98609.53
2023-04-10T15:06:27.400Z,98603.91
2023-04-10T15:08:55.659Z,98594.47
2023-04-10T15:11:22.195Z,98587.63
2023-04-10T15:13:48.693Z,98590.72
2023-04-10T15:16:15.701Z,98588.78
2023-04-10T15:18:42.293Z,98580.84
2023-04-10T15:21:08.887Z,98587.88
2023-04-10T15:23:35.340Z,98584.38
2023-04-10T15:26:03.294Z,98572.91
2023-04-10T15:28:29.794Z,98572.94
2023-04-10T15:30:57.760Z,98578.31
2023-04-10T15:33:24.485Z,98571.88
2023-04-10T15:35:51.126Z,98569.91
2023-04-10T15:38:17.661Z,98570.50
2023-04-10T15:40:44.142Z,98568.25
2023-04-10T15:43:11.177Z,98561.97
2023-04-10T15:45:37.909Z,98564.59
2023-04-10T15:48:05.142Z,98572.09
2023-04-10T15:50:31.799Z,98573.13
2023-04-10T15:52:58.309Z,98573.53
2023-04-10T15:55:24.826Z,98562.19
2023-04-10T15:57:51.321Z,98559.75
2023-04-10T16:00:18.110Z,98554.72
2023-04-10T16:02:44.941Z,98559.19
2023-04-10T16:05:11.659Z,98561.00
2023-04-10T16:07:39.138Z,98560.78
2023-04-10T16:10:06.422Z,98559.38
2023-04-10T16:12:32.936Z,98560.78
2023-04-10T16:14:59.381Z,98554.31
2023-04-10T16:17:25.930Z,98551.78
2023-04-10T16:19:52.652Z,98555.00
2023-04-10T16:22:19.705Z,98554.28
2023-04-10T16:24:46.195Z,98549.75
2023-04-10T16:27:12.643Z,98548.44
2023-04-10T16:29:39.082Z,98551.53
2023-04-10T16:32:05.724Z,98550.41
2023-04-10T16:34:32.286Z,98556.25
2023-04-10T16:36:58.721Z,98546.97
2023-04-10T16:39:25.240Z,98558.47
2023-04-10T16:41:51.886Z,98558.41
2023-04-10T16:44:18.432Z,98554.59
2023-04-10T16:46:45.103Z,98567.56
2023-04-10T16:49:11.687Z,98562.19
2023-04-10T16:51:38.422Z,98545.34
2023-04-10T16:54:04.998Z,98548.97
2023-04-10T16:56:32.648Z,98550.66
2023-04-10T16:58:59.153Z,98555.06
2023-04-10T17:01:25.958Z,98556.19
2023-04-10T17:03:53.610Z,98554.28
2023-04-10T17:06:20.413Z,98548.91
2023-04-10T17:08:47.253Z,98551.94
2023-04-10T17:11:13.774Z,98557.16
2023-04-10T17:13:41.106Z,98545.28
2023-04-10T17:16:08.608Z,98546.97
2023-04-10T17:18:35.814Z,98547.72
2023-04-10T17:21:02.456Z,98553.72
2023-04-10T17:23:29.492Z,98550.75
2023-04-10T17:25:55.994Z,98548.94
2023-04-10T17:28:22.938Z,98550.97
2023-04-10T17:30:49.446Z,98546.09
2023-04-10T17:33:15.984Z,98546.25
2023-04-10T17:35:42.512Z,98544.38
2023-04-10T17:38:11.200Z,98542.19
2023-04-10T17:40:40.841Z,98542.78
2023-04-10T17:43:07.526Z,98536.94
2023-04-10T17:48:05.033Z,98532.69
2023-04-10T17:50:32.407Z,98527.63
2023-04-10T17:53:02.117Z,98529.00
2023-04-10T17:55:28.609Z,98541.47
2023-04-10T17:57:57.602Z,98531.19
2023-04-10T18:00:24.439Z,98523.06
2023-04-10T18:02:52.953Z,98525.03
2023-04-10T18:05:19.537Z,98514.50
2023-04-10T18:07:47.268Z,98514.78
2023-04-10T18:10:13.830Z,98523.34
2023-04-10T18:12:40.430Z,98526.16
2023-04-10T18:15:07.651Z,98516.09
2023-04-10T18:17:34.436Z,98513.72
2023-04-10T18:20:00.926Z,98511.84
2023-04-10T18:22:28.752Z,98524.94
2023-04-10T18:24:55.314Z,98530.03
2023-04-10T18:27:21.882Z,98525.97
2023-04-10T18:29:48.359Z,98536.13
2023-04-10T18:32:14.854Z,98534.84
2023-04-10T18:34:41.461Z,98548.19
2023-04-10T18:37:10.056Z,98550.34
2023-04-10T18:39:38.207Z,98559.84
2023-04-10T18:42:07.512Z,98562.88
2023-04-10T18:44:34.869Z,98572.94
2023-04-10T18:47:04.746Z,98575.63
2023-04-10T18:49:32.046Z,98579.50
2023-04-10T18:51:58.563Z,98574.38
2023-04-10T18:54:27.095Z,98571.91
2023-04-10T18:56:53.594Z,98580.88
2023-04-10T18:59:20.223Z,98586.34
2023-04-10T19:01:46.914Z,98593.13
2023-04-10T19:04:13.752Z,98599.59
2023-04-10T19:06:41.110Z,98607.50
2023-04-10T19:09:08.730Z,98611.31
2023-04-10T19:11:35.320Z,98604.84
2023-04-10T19:14:01.873Z,98603.75
2023-04-10T19:16:28.439Z,98612.97
2023-04-10T19:18:55.346Z,98606.50
2023-04-10T19:21:22.127Z,98606.50
2023-04-10T19:23:49.328Z,98604.91
2023-04-10T19:26:16.039Z,98595.44
2023-04-10T19:28:42.617Z,98600.03
2023-04-10T19:31:09.258Z,98591.91
2023-04-10T19:33:35.775Z,98592.72
2023-04-10T19:36:02.289Z,98599.50
2023-04-10T19:38:32.831Z,98604.97
2023-04-10T19:40:59.327Z,98607.72
2023-04-10T19:43:25.895Z,98594.44
2023-04-10T19:45:53.322Z,98589.25
2023-04-10T19:48:20.080Z,98583.03
2023-04-10T19:50:46.593Z,98582.78
2023-04-10T19:53:15.607Z,98586.81
2023-04-10T19:55:44.266Z,98588.47
2023-04-10T19:58:20.702Z,98591.47
2023-04-10T20:01:05.086Z,98596.88
2023-04-10T20:03:32.861Z,98595.00
2023-04-10T20:06:00.611Z,98594.75
2023-04-10T20:08:27.180Z,98597.69
2023-04-10T20:10:53.644Z,98598.00
2023-04-10T20:13:20.833Z,98591.22
2023-04-10T20:15:48.139Z,98590.97
2023-04-10T20:18:17.811Z,98586.09
2023-04-10T20:20:44.822Z,98573.34
2023-04-10T20:23:12.286Z,98571.47
2023-04-10T20:25:38.914Z,98558.94
2023-04-10T20:28:05.469Z,98568.13
2023-04-10T20:30:31.986Z,98570.78
2023-04-10T20:32:58.588Z,98565.88
2023-04-10T20:35:26.113Z,98569.19
2023-04-10T20:37:52.712Z,98561.66
2023-04-10T20:40:19.614Z,98551.38
2023-04-10T20:42:46.228Z,98544.91
2023-04-10T20:45:13.015Z,98544.38
2023-04-10T20:47:39.988Z,98538.69
2023-04-10T20:50:07.516Z,98538.38
2023-04-10T20:52:34.086Z,98531.63
2023-04-10T20:55:00.845Z,98535.16
2023-04-10T20:57:27.389Z,98530.25
2023-04-10T20:59:53.881Z,98531.09
2023-04-10T21:02:20.460Z,98529.22
2023-04-10T21:04:47.122Z,98518.41
2023-04-10T21:07:13.718Z,98524.31
2023-04-10T21:09:40.234Z,98525.16
2023-04-10T21:12:06.855Z,98536.81
2023-04-10T21:14:33.466Z,98525.16
2023-04-10T21:17:00.255Z,98521.09
2023-04-10T21:19:27.036Z,98503.75
2023-04-10T21:21:53.618Z,98496.94
2023-04-10T21:24:20.205Z,98518.91
2023-04-10T21:26:46.696Z,98521.06
2023-04-10T21:29:13.273Z,98515.91
2023-04-10T21:31:39.802Z,98509.44
2023-04-10T21:34:06.392Z,98505.38
2023-04-10T21:36:32.938Z,98505.63
2023-04-10T21:38:59.451Z,98514.03
2023-04-10T21:41:27.126Z,98515.66
2023-04-10T21:43:56.588Z,98512.97
2023-04-10T21:46:23.321Z,98511.88
2023-04-10T21:48:49.952Z,98515.69
2023-04-10T21:51:16.458Z,98501.59
2023-04-10T21:53:43.024Z,98500.25
2023-04-10T21:56:09.485Z,98498.38
2023-04-10T21:58:35.974Z,98500.50
2023-04-10T22:01:02.544Z,98495.38
2023-04-10T22:03:29.234Z,98500.53
2023-04-10T22:05:55.870Z,98495.97
2023-04-10T22:08:22.424Z,98482.69
2023-04-10T22:10:49.153Z,98485.13
2023-04-10T22:15:45.209Z,98470.78
2023-04-10T22:18:11.725Z,98472.41
2023-04-10T22:20:38.290Z,98467.25
2023-04-10T22:23:04.901Z,98454.53
2023-04-10T22:25:31.505Z,98452.38
2023-04-10T22:27:59.131Z,98449.13
2023-04-10T22:30:26.435Z,98448.59
2023-04-10T22:32:58.948Z,98455.63
2023-04-10T22:35:25.747Z,98457.56
2023-04-10T22:37:52.288Z,98464.31
2023-04-10T22:40:18.746Z,98452.94
2023-04-10T22:42:45.768Z,98447.53
2023-04-10T22:45:12.848Z,98449.41
2023-04-10T22:47:39.304Z,98434.53
2023-04-10T22:50:07.248Z,98432.09
2023-04-10T22:52:33.855Z,98434.00
2023-04-10T22:55:00.350Z,98428.59
2023-04-10T22:57:26.830Z,98429.38
2023-04-10T22:59:53.761Z,98415.34
2023-04-10T23:02:20.241Z,98406.13
2023-04-10T23:04:46.772Z,98387.97
2023-04-10T23:07:13.334Z,98357.16
2023-04-10T23:09:39.813Z,98356.59
2023-04-10T23:12:06.498Z,98358.53
2023-04-10T23:14:36.302Z,98361.75
2023-04-10T23:17:02.848Z,98364.75
2023-04-10T23:19:29.365Z,98368.28
2023-04-10T23:21:55.876Z,98368.84
2023-04-10T23:24:22.365Z,98375.59
2023-04-10T23:26:48.855Z,98364.22
2023-04-10T23:29:15.647Z,98385.00
2023-04-10T23:31:42.201Z,98383.69
2023-04-10T23:34:08.789Z,98393.94
2023-04-10T23:36:35.357Z,98399.63
2023-04-10T23:39:01.863Z,98404.19
2023-04-10T23:41:28.382Z,98415.28
2023-04-10T23:43:54.860Z,98418.25
2023-04-10T23:46:21.395Z,98412.06
2023-04-10T23:48:47.906Z,98416.38
2023-04-10T23:51:14.830Z,98420.41
2023-04-10T23:53:41.344Z,98424.78
2023-04-10T23:56:08.831Z,98432.28
2023-04-10T23:58:35.387Z,98433.09
